createdAt,value
2023-05-21T00:00:53.922Z,14.20
2023-05-21T00:03:56.132Z,14.10
2023-05-21T00:06:58.844Z,14.00
2023-05-21T00:10:00.960Z,14.00
2023-05-21T00:13:03.120Z,14.00
2023-05-21T00:16:05.792Z,14.00
2023-05-21T00:19:08.341Z,14.00
2023-05-21T00:22:10.644Z,13.90
2023-05-21T00:25:13.070Z,13.90
2023-05-21T00:28:15.190Z,13.90
2023-05-21T00:31:19.158Z,13.80
2023-05-21T00:34:21.370Z,13.80
2023-05-21T00:37:24.701Z,13.70
2023-05-21T00:40:26.852Z,13.70
2023-05-21T00:43:29.357Z,13.60
2023-05-21T00:46:31.602Z,13.50
2023-05-21T00:49:33.864Z,13.50
2023-05-21T00:52:41.966Z,13.40
2023-05-21T00:55:44.907Z,13.30
2023-05-21T00:58:47.995Z,13.30
2023-05-21T01:01:56.213Z,13.30
2023-05-21T01:05:00.405Z,13.30
2023-05-21T01:08:03.168Z,13.30
2023-05-21T01:11:07.125Z,13.30
2023-05-21T01:14:12.773Z,13.30
2023-05-21T01:17:15.755Z,13.30
2023-05-21T01:20:20.227Z,13.30
2023-05-21T01:23:22.437Z,13.20
2023-05-21T01:26:26.116Z,13.20
2023-05-21T01:29:28.224Z,13.30
2023-05-21T01:32:34.386Z,13.30
2023-05-21T01:35:41.876Z,13.30
2023-05-21T01:39:02.224Z,13.20
2023-05-21T01:42:09.389Z,13.20
2023-05-21T01:45:14.586Z,13.20
2023-05-21T01:48:18.738Z,13.20
2023-05-21T01:51:21.115Z,13.20
2023-05-21T01:54:24.226Z,13.20
2023-05-21T01:57:26.396Z,13.20
2023-05-21T02:00:29.568Z,13.10
2023-05-21T02:03:32.006Z,13.20
2023-05-21T02:06:35.974Z,13.10
2023-05-21T02:09:38.238Z,13.10
2023-05-21T02:12:40.346Z,13.10
2023-05-21T02:15:42.725Z,13.00
2023-05-21T02:18:44.892Z,13.00
2023-05-21T02:21:47.057Z,12.90
2023-05-21T02:24:49.426Z,12.80
2023-05-21T02:27:53.734Z,12.70
2023-05-21T02:30:56.749Z,12.60
2023-05-21T02:33:58.927Z,12.50
2023-05-21T02:37:01.776Z,12.40
2023-05-21T02:40:06.099Z,12.30
2023-05-21T02:43:09.317Z,12.30
2023-05-21T02:46:11.495Z,12.20
2023-05-21T02:49:13.735Z,12.10
2023-05-21T02:52:16.101Z,12.00
2023-05-21T02:55:18.218Z,11.80
2023-05-21T02:58:23.514Z,11.80
2023-05-21T03:01:25.955Z,11.70
2023-05-21T03:04:28.533Z,11.60
2023-05-21T03:07:30.817Z,11.50
2023-05-21T03:10:32.997Z,11.40
2023-05-21T03:13:35.181Z,11.40
2023-05-21T03:16:38.146Z,11.30
2023-05-21T03:19:41.968Z,11.20
2023-05-21T03:22:44.946Z,11.20
2023-05-21T03:25:47.092Z,11.10
2023-05-21T03:28:49.169Z,11.00
2023-05-21T03:31:54.008Z,11.00
2023-05-21T03:34:56.214Z,11.00
2023-05-21T03:37:58.294Z,11.00
2023-05-21T03:41:00.508Z,11.00
2023-05-21T03:44:02.646Z,10.90
2023-05-21T03:47:04.874Z,11.00
2023-05-21T03:50:07.766Z,11.00
2023-05-21T03:53:10.966Z,11.00
2023-05-21T03:56:13.200Z,11.10
2023-05-21T03:59:15.289Z,11.20
2023-05-21T04:02:17.577Z,11.20
2023-05-21T04:05:19.845Z,11.30
2023-05-21T04:08:22.086Z,11.20
2023-05-21T04:11:24.171Z,11.30
2023-05-21T04:14:26.498Z,11.50
2023-05-21T04:17:28.768Z,11.60
2023-05-21T04:20:30.945Z,11.60
2023-05-21T04:23:33.701Z,11.80
2023-05-21T04:26:35.787Z,11.90
2023-05-21T04:29:42.633Z,12.00
2023-05-21T04:32:45.992Z,12.20
2023-05-21T04:35:50.684Z,12.30
2023-05-21T04:38:53.468Z,12.40
2023-05-21T04:41:56.658Z,12.50
2023-05-21T04:44:59.554Z,12.70
2023-05-21T04:48:02.998Z,12.90
2023-05-21T04:51:07.921Z,13.20
2023-05-21T04:54:10.090Z,13.50
2023-05-21T04:57:12.174Z,13.80
2023-05-21T05:00:14.539Z,14.10
2023-05-21T05:03:16.740Z,14.60
2023-05-21T05:06:19.020Z,15.00
2023-05-21T05:09:24.139Z,15.30
2023-05-21T05:12:26.285Z,15.50
2023-05-21T05:15:28.395Z,15.90
2023-05-21T05:18:30.518Z,16.20
2023-05-21T05:21:33.279Z,16.40
2023-05-21T05:24:35.428Z,16.70
2023-05-21T05:27:38.581Z,17.10
2023-05-21T05:30:41.031Z,17.30
2023-05-21T05:33:43.137Z,17.60
2023-05-21T05:36:45.304Z,17.80
2023-05-21T05:39:47.423Z,17.90
2023-05-21T05:42:49.633Z,18.10
2023-05-21T05:45:51.735Z,18.20
2023-05-21T05:48:53.814Z,18.30
2023-05-21T05:51:56.728Z,18.80
2023-05-21T05:54:58.880Z,19.20
2023-05-21T05:58:01.030Z,19.50
2023-05-21T06:01:03.181Z,19.90
2023-05-21T06:04:05.601Z,20.20
2023-05-21T06:07:07.712Z,20.40
2023-05-21T06:10:10.333Z,20.80
2023-05-21T06:13:12.395Z,21.10
2023-05-21T06:16:16.000Z,21.30
2023-05-21T06:19:18.241Z,21.50
2023-05-21T06:22:20.464Z,21.60
2023-05-21T06:25:22.782Z,21.80
2023-05-21T06:28:24.893Z,22.00
2023-05-21T06:31:27.072Z,22.20
2023-05-21T06:34:29.199Z,22.60
2023-05-21T06:37:31.310Z,22.80
2023-05-21T06:40:34.263Z,23.20
2023-05-21T06:43:36.416Z,23.20
2023-05-21T06:46:38.972Z,23.20
2023-05-21T06:49:41.086Z,23.30
2023-05-21T06:52:43.226Z,23.50
2023-05-21T06:55:45.467Z,23.70
2023-05-21T06:58:47.611Z,23.80
2023-05-21T07:01:49.727Z,24.00
2023-05-21T07:04:53.724Z,24.30
2023-05-21T07:07:55.760Z,24.40
2023-05-21T07:10:58.099Z,24.90
2023-05-21T07:14:01.806Z,25.00
2023-05-21T07:17:04.062Z,25.30
2023-05-21T07:20:07.885Z,25.80
2023-05-21T07:23:09.961Z,25.80
2023-05-21T07:26:12.415Z,26.00
2023-05-21T07:29:14.552Z,26.00
2023-05-21T07:32:16.779Z,26.50
2023-05-21T07:35:19.176Z,26.90
2023-05-21T07:38:21.305Z,26.90
2023-05-21T07:41:23.315Z,27.00
2023-05-21T07:44:25.487Z,27.10
2023-05-21T07:47:27.572Z,27.10
2023-05-21T07:50:29.677Z,27.00
2023-05-21T07:53:32.576Z,27.30
2023-05-21T07:56:34.745Z,27.70
2023-05-21T07:59:36.878Z,27.90
2023-05-21T08:02:39.099Z,27.80
2023-05-21T08:05:41.271Z,27.30
2023-05-21T08:08:43.443Z,27.40
2023-05-21T08:11:46.357Z,27.70
2023-05-21T08:14:48.402Z,28.10
2023-05-21T08:17:50.850Z,28.00
2023-05-21T08:20:53.118Z,28.20
2023-05-21T08:23:55.207Z,28.30
2023-05-21T08:26:57.319Z,28.70
2023-05-21T08:29:59.509Z,28.70
2023-05-21T08:33:02.339Z,28.30
2023-05-21T08:36:06.146Z,28.50
2023-05-21T08:39:08.323Z,28.60
2023-05-21T08:42:35.729Z,29.00
2023-05-21T08:45:42.473Z,29.60
2023-05-21T08:48:45.234Z,29.70
2023-05-21T08:51:47.871Z,29.20
2023-05-21T08:54:51.276Z,29.60
2023-05-21T08:57:54.506Z,29.70
2023-05-21T09:00:57.645Z,29.70
2023-05-21T09:04:12.369Z,30.10
2023-05-21T09:07:24.223Z,30.40
2023-05-21T09:10:34.888Z,30.70
2023-05-21T09:13:39.148Z,30.90
2023-05-21T09:16:41.551Z,30.60
2023-05-21T09:20:11.179Z,30.50
2023-05-21T09:23:17.984Z,30.80
2023-05-21T09:26:22.003Z,30.80
2023-05-21T09:29:26.146Z,30.60
2023-05-21T09:32:28.343Z,30.80
2023-05-21T09:35:30.433Z,30.70
2023-05-21T09:38:34.949Z,30.30
2023-05-21T09:41:38.003Z,29.60
2023-05-21T09:44:43.331Z,29.60
2023-05-21T09:47:46.808Z,29.50
2023-05-21T09:50:49.427Z,29.90
2023-05-21T09:53:53.225Z,29.60
2023-05-21T09:56:55.469Z,30.30
2023-05-21T09:59:57.574Z,30.90
2023-05-21T10:03:09.648Z,30.90
2023-05-21T10:06:13.204Z,30.70
2023-05-21T10:09:18.964Z,31.20
2023-05-21T10:12:24.413Z,30.90
2023-05-21T10:15:28.225Z,31.20
2023-05-21T10:18:32.378Z,31.50
2023-05-21T10:21:34.954Z,31.80
2023-05-21T10:24:38.183Z,31.70
2023-05-21T10:27:41.663Z,32.40
2023-05-21T10:30:44.667Z,32.90
2023-05-21T10:33:47.298Z,32.30
2023-05-21T10:36:50.987Z,32.40
2023-05-21T10:39:53.775Z,32.50
2023-05-21T10:43:13.538Z,33.10
2023-05-21T10:46:33.663Z,33.20
2023-05-21T10:49:48.553Z,33.30
2023-05-21T10:53:10.690Z,32.80
2023-05-21T10:56:22.137Z,33.20
2023-05-21T10:59:43.212Z,33.40
2023-05-21T11:02:46.191Z,33.00
2023-05-21T11:05:52.559Z,32.50
2023-05-21T11:08:55.781Z,32.20
2023-05-21T11:12:04.736Z,31.00
2023-05-21T11:15:07.561Z,31.00
2023-05-21T11:18:09.779Z,31.70
2023-05-21T11:21:21.120Z,32.00
2023-05-21T11:24:25.616Z,31.00
2023-05-21T11:27:39.012Z,31.70
2023-05-21T11:30:41.390Z,32.00
2023-05-21T11:33:43.551Z,32.60
2023-05-21T11:36:49.351Z,32.10
2023-05-21T11:39:51.908Z,31.00
2023-05-21T11:42:55.926Z,29.70
2023-05-21T11:45:59.123Z,28.50
2023-05-21T11:49:02.705Z,28.00
2023-05-21T11:52:07.004Z,27.70
2023-05-21T11:55:11.334Z,26.90
2023-05-21T11:58:15.065Z,27.90
2023-05-21T12:01:26.671Z,28.10
2023-05-21T12:04:38.347Z,27.50
2023-05-21T12:07:40.564Z,27.20
2023-05-21T12:10:44.437Z,26.70
2023-05-21T12:13:50.911Z,26.40
2023-05-21T12:16:53.099Z,26.20
2023-05-21T12:19:56.941Z,26.00
2023-05-21T12:22:59.297Z,25.70
2023-05-21T12:26:01.590Z,25.60
2023-05-21T12:29:05.838Z,25.40
2023-05-21T12:32:09.695Z,25.20
2023-05-21T12:35:22.742Z,25.00
2023-05-21T12:38:31.349Z,25.00
2023-05-21T12:41:33.463Z,25.20
2023-05-21T12:44:36.854Z,25.80
2023-05-21T12:47:39.198Z,25.90
2023-05-21T12:50:42.264Z,24.70
2023-05-21T12:53:44.534Z,24.00
2023-05-21T12:56:46.873Z,23.80
2023-05-21T13:00:00.250Z,23.70
2023-05-21T13:03:04.677Z,23.90
2023-05-21T13:06:08.526Z,24.60
2023-05-21T13:09:11.028Z,24.40
2023-05-21T13:12:13.425Z,23.90
2023-05-21T13:15:15.650Z,23.90
2023-05-21T13:18:17.924Z,23.90
2023-05-21T13:21:20.143Z,23.80
2023-05-21T13:24:22.411Z,23.80
2023-05-21T13:27:24.426Z,23.70
2023-05-21T13:30:26.702Z,23.70
2023-05-21T13:33:28.950Z,23.60
2023-05-21T13:36:31.371Z,23.40
2023-05-21T13:39:33.622Z,23.40
2023-05-21T13:42:37.794Z,23.40
2023-05-21T13:45:39.897Z,23.30
2023-05-21T13:48:43.332Z,23.00
2023-05-21T13:51:45.498Z,22.70
2023-05-21T13:54:48.135Z,22.60
2023-05-21T13:57:50.375Z,22.70
2023-05-21T14:00:52.548Z,22.70
2023-05-21T14:03:54.881Z,22.30
2023-05-21T14:06:57.048Z,22.10
2023-05-21T14:09:59.182Z,22.30
2023-05-21T14:13:11.913Z,22.30
2023-05-21T14:16:18.573Z,22.70
2023-05-21T14:19:20.739Z,23.70
2023-05-21T14:22:23.012Z,24.60
2023-05-21T14:25:25.157Z,25.50
2023-05-21T14:28:27.360Z,26.40
2023-05-21T14:31:29.526Z,25.60
2023-05-21T14:34:31.646Z,25.30
2023-05-21T14:37:33.918Z,24.90
2023-05-21T14:40:35.973Z,24.50
2023-05-21T14:43:37.998Z,25.00
2023-05-21T14:46:40.288Z,26.10
2023-05-21T14:49:42.447Z,26.10
2023-05-21T14:52:45.137Z,26.70
2023-05-21T14:55:47.260Z,27.80
2023-05-21T14:58:49.517Z,27.70
2023-05-21T15:01:51.880Z,27.50
2023-05-21T15:04:54.004Z,26.70
2023-05-21T15:07:57.129Z,26.00
2023-05-21T15:10:59.235Z,25.40
2023-05-21T15:14:01.349Z,24.80
2023-05-21T15:17:03.592Z,24.50
2023-05-21T15:20:06.554Z,24.90
2023-05-21T15:23:16.634Z,25.10
2023-05-21T15:26:19.228Z,25.70
2023-05-21T15:29:21.390Z,26.70
2023-05-21T15:32:23.587Z,27.10
2023-05-21T15:35:25.831Z,27.50
2023-05-21T15:38:28.159Z,27.30
2023-05-21T15:41:30.799Z,27.20
2023-05-21T15:44:32.912Z,27.10
2023-05-21T15:47:35.182Z,27.10
2023-05-21T15:50:38.208Z,27.10
2023-05-21T15:53:40.310Z,26.80
2023-05-21T15:56:44.620Z,26.40
2023-05-21T15:59:46.666Z,26.30
2023-05-21T16:02:48.802Z,26.20
2023-05-21T16:05:51.022Z,25.80
2023-05-21T16:08:53.503Z,25.50
2023-05-21T16:11:55.862Z,25.30
2023-05-21T16:14:57.951Z,24.70
2023-05-21T16:18:00.235Z,24.80
2023-05-21T16:21:02.417Z,25.10
2023-05-21T16:24:04.887Z,25.40
2023-05-21T16:27:07.202Z,25.40
2023-05-21T16:30:09.632Z,25.40
2023-05-21T16:33:12.554Z,25.60
2023-05-21T16:36:16.304Z,25.70
2023-05-21T16:39:19.620Z,25.80
2023-05-21T16:42:21.936Z,25.60
2023-05-21T16:45:24.365Z,25.50
2023-05-21T16:48:26.485Z,25.50
2023-05-21T16:51:28.638Z,25.60
2023-05-21T16:54:30.771Z,25.50
2023-05-21T16:57:32.834Z,25.40
2023-05-21T17:00:35.540Z,25.30
2023-05-21T17:03:38.303Z,25.20
2023-05-21T17:06:41.283Z,25.10
2023-05-21T17:09:43.487Z,24.90
2023-05-21T17:12:45.953Z,24.70
2023-05-21T17:15:48.240Z,24.50
2023-05-21T17:18:50.936Z,24.30
2023-05-21T17:21:55.439Z,24.10
2023-05-21T17:24:58.682Z,23.70
2023-05-21T17:28:00.924Z,23.50
2023-05-21T17:31:03.629Z,23.40
2023-05-21T17:34:05.806Z,23.10
2023-05-21T17:37:07.853Z,22.90
2023-05-21T17:40:10.491Z,22.70
2023-05-21T17:43:12.647Z,22.40
2023-05-21T17:46:17.557Z,22.30
2023-05-21T17:49:19.729Z,22.00
2023-05-21T17:52:21.854Z,21.70
2023-05-21T17:55:23.988Z,21.40
2023-05-21T17:58:26.128Z,21.20
2023-05-21T18:01:28.538Z,20.90
2023-05-21T18:04:31.265Z,20.70
2023-05-21T18:07:33.664Z,20.40
2023-05-21T18:10:36.015Z,20.10
2023-05-21T18:13:38.151Z,19.80
2023-05-21T18:16:41.171Z,19.60
2023-05-21T18:19:43.695Z,19.30
2023-05-21T18:22:46.787Z,19.10
2023-05-21T18:25:49.108Z,18.90
2023-05-21T18:28:52.286Z,18.70
2023-05-21T18:31:55.399Z,18.50
2023-05-21T18:34:58.600Z,18.30
2023-05-21T18:38:01.605Z,18.20
2023-05-21T18:41:05.163Z,18.00
2023-05-21T18:44:08.229Z,17.80
2023-05-21T18:47:12.372Z,17.60
2023-05-21T18:50:15.572Z,17.50
2023-05-21T18:53:19.412Z,17.40
2023-05-21T18:56:22.653Z,17.20
2023-05-21T18:59:27.278Z,17.10
2023-05-21T19:02:30.959Z,17.00
2023-05-21T19:05:35.027Z,16.80
2023-05-21T19:08:39.073Z,16.70
2023-05-21T19:11:42.702Z,16.60
2023-05-21T19:14:46.252Z,16.50
2023-05-21T19:17:49.431Z,16.40
2023-05-21T19:20:53.026Z,16.40
2023-05-21T19:23:56.737Z,16.30
2023-05-21T19:27:02.211Z,16.20
2023-05-21T19:30:05.988Z,16.10
2023-05-21T19:33:09.189Z,16.00
2023-05-21T19:36:12.610Z,15.90
2023-05-21T19:39:16.926Z,15.80
2023-05-21T19:42:21.583Z,15.70
2023-05-21T19:45:25.472Z,15.60
2023-05-21T19:48:28.739Z,15.60
2023-05-21T19:51:31.978Z,15.50
2023-05-21T19:54:34.952Z,15.40
2023-05-21T19:57:39.813Z,15.30
2023-05-21T20:00:46.740Z,15.30
2023-05-21T20:03:49.988Z,15.30
2023-05-21T20:06:52.931Z,15.30
2023-05-21T20:09:55.608Z,15.30
2023-05-21T20:12:58.074Z,15.50
2023-05-21T20:16:00.250Z,16.30
2023-05-21T20:19:03.894Z,16.70
2023-05-21T20:22:06.224Z,16.80
2023-05-21T20:25:09.189Z,16.80
2023-05-21T20:28:12.176Z,16.80
2023-05-21T20:31:14.531Z,16.70
2023-05-21T20:34:17.762Z,16.60
2023-05-21T20:37:21.714Z,16.40
2023-05-21T20:40:23.948Z,16.30
2023-05-21T20:43:26.106Z,16.20
2023-05-21T20:46:28.203Z,16.10
2023-05-21T20:49:33.214Z,16.00
2023-05-21T20:52:36.291Z,16.00
2023-05-21T20:55:38.699Z,15.90
2023-05-21T20:58:40.830Z,15.70
2023-05-21T21:01:43.039Z,15.60
2023-05-21T21:04:49.104Z,15.50
2023-05-21T21:07:55.461Z,15.40
2023-05-21T21:10:58.237Z,15.30
2023-05-21T21:14:02.589Z,15.30
2023-05-21T21:17:04.783Z,15.60
2023-05-21T21:20:07.725Z,15.80
2023-05-21T21:23:09.892Z,16.10
2023-05-21T21:26:11.990Z,16.30
2023-05-21T21:29:14.111Z,16.30
2023-05-21T21:32:16.392Z,16.20
2023-05-21T21:35:18.630Z,16.00
2023-05-21T21:38:20.765Z,15.90
2023-05-21T21:41:23.174Z,15.80
2023-05-21T21:44:25.439Z,15.60
2023-05-21T21:47:27.591Z,15.50
2023-05-21T21:50:29.708Z,15.40
2023-05-21T21:53:31.855Z,15.30
2023-05-21T21:56:33.965Z,15.20
2023-05-21T21:59:39.199Z,15.10
2023-05-21T22:02:42.201Z,15.10
2023-05-21T22:05:44.615Z,14.90
2023-05-21T22:08:46.879Z,14.80
2023-05-21T22:11:49.247Z,14.70
2023-05-21T22:14:51.357Z,14.60
2023-05-21T22:17:53.631Z,14.50
2023-05-21T22:20:55.919Z,14.40
2023-05-21T22:23:58.218Z,14.30
2023-05-21T22:27:00.613Z,14.20
2023-05-21T22:30:03.657Z,14.10
2023-05-21T22:33:06.275Z,14.10
2023-05-21T22:36:08.718Z,14.00
2023-05-21T22:39:10.926Z,13.90
2023-05-21T22:42:13.131Z,13.70
2023-05-21T22:45:15.982Z,13.70
2023-05-21T22:48:18.279Z,13.60
2023-05-21T22:51:20.409Z,13.50
2023-05-21T22:54:22.781Z,13.50
2023-05-21T22:57:24.899Z,13.40
2023-05-21T23:00:27.364Z,13.30
2023-05-21T23:03:29.597Z,13.20
2023-05-21T23:06:31.825Z,13.10
2023-05-21T23:09:33.984Z,13.00
2023-05-21T23:12:37.320Z,13.00
2023-05-21T23:15:39.412Z,13.00
2023-05-21T23:18:41.579Z,12.90
2023-05-21T23:21:43.914Z,12.90
2023-05-21T23:24:46.206Z,12.80
2023-05-21T23:27:48.376Z,12.80
2023-05-21T23:30:51.055Z,12.70
2023-05-21T23:33:53.168Z,12.70
2023-05-21T23:36:55.912Z,12.70
2023-05-21T23:39:59.047Z,12.70
2023-05-21T23:43:01.409Z,12.70
2023-05-21T23:46:03.638Z,12.60
2023-05-21T23:49:05.739Z,12.50
2023-05-21T23:52:08.154Z,12.50
2023-05-21T23:55:12.679Z,12.50
2023-05-21T23:58:14.773Z,12.50
